aviador You're here:

KWRI Decoded Metar

WRIGHTSTOWN in NJ, USA
Report Time2018-07-17 00:56:00
UTC Time2018-07-17 01:55:27
Flight Rules vfr VFR
Wind180° at 06 kt
W.Decomp.*RWY 18: 5.9 kt HW 1.2 kt RCW
RWY 24: 4.0 kt HW 4.5 kt LCW
W.Rank180° ranks 17
Current wind is below 180° avg. (6.1)
Visibility9999 m
Phenomena:N/A
Clouds:N/A
Expected CloudBase > 1,600 ft AGL from Temp-Dew spread
CeilingNone
Temp27°C (ISA +12)
Dew Point23°C (79% RH)
Heat Index29.6°C
QNH1012 hPa
Density Alt1,952 ft
Elevation135 ft
Report Wrong Elevation
Raw Report
KWRI 170056Z AUTO 18006KT 10SM CLR 27/23 A2989 RMK AO2 SLP120
T02690229 $=

Extra information for KWRI:More info

Metar Taf Metar & Taf Last 4 Metars F.Rules Stats Wind Profile Meteogram Temp Stats Airport Information Weather charts Add Link Nearby VenuesMetar ALERT Operation Metar Decoded Social comments

AIRNAV info for KWRI